Townsend, MT

5:24 PM MDT on August 27, 2014 (GMT -0600)
RAWS GINGER MT US | Change Station
CLOSE
Current Station
Personal Weather Station
Location: Winston, MT
Elevation: 4370 ft
Nearby Weather Stations

Elev 4370 ft 46.33 °N, 111.59 °W | Updated 21 minutes ago

Clear
Clear
78 °F
Feels Like 78 °F
N
6
Wind Variable Wind from ENE
Gusts 10.0 mph

Today
High -- | Low -- °F
--% Chance of Precip.
Yesterday
High -- | Low -- °F
Precip. -- in
6:40 AM 8:13 PM
Waxing Crescent, 5% visible
Pressure 30.00 in
Visibility 10.0 miles
Clouds Clear
Heat Index 78 °F
Dew Point 44 °F
Humidity 30%
Rainfall 0.00 in
Snow Depth 0 in
UV 4 out of 12
Pollen 7.60 out of 12
Air Quality Not available.
Flu Activity Not available.
METAR KHLN 272253Z 23010KT 10SM CLR 29/06 A3004 RMK AO2 SLP158 T02890061

More Conditions Fewer Conditions

Pressure 30.00 in
Visibility 10.0 miles
Clouds Clear
Heat Index 78 °F
Dew Point 44 °F
Humidity 30%
Rainfall 0.00 in
Snow Depth 0 in
UV 4 out of 12
Pollen 7.60 out of 12
Air Quality Not available.
Flu Activity Not available.
METAR KHLN 272253Z 23010KT 10SM CLR 29/06 A3004 RMK AO2 SLP158 T02890061

More Conditions Fewer Conditions

10-Day Weather Forecast

Almanac

Astronomy

Aug. 27, 2014 Rise Set
Actual Time 6:40 AM MDT 8:13 PM MDT
Civil Twilight 6:08 AM MDT 8:45 PM MDT
Nautical Twilight 5:30 AM MDT 9:23 PM MDT
Astronomical Twilight 4:48 AM MDT 10:04 PM MDT
Moon 8:49 AM MDT 8:57 PM MDT
Length of Visible Light 14h 36m
Length of Day
13h 33m
Tomorrow will be 3m 7s shorter.
Waxing Crescent, 5% of the Moon is Illuminated
Today
Waxing Crescent
Sep 2
First Quarter
Sep 8
Full
Sep 15
Last Quarter
Sep 24
New

Today's Extremes

State Highs State Lows

Community

WunderPhotos

Upload Photos

1,747,816 photos uploaded!

Nearby

Snow Depth

Station Depth Elevation
Tizer Basin 0 in 6840 ft
Brackett Creek 0 in 7320 ft
Sacajawea 0 in 6550 ft
Porcupine 0 in 6500 ft
Basin Creek 0 in 7180 ft

Earthquake Activity

City Distance Mag. Time & Date
No recent earthquake activity has been reported nearby.
Minimum magnitude displayed is 2.5.

Coastal Water Temperatures

Place Temperature
No Stations Reporting

Nearby Weather Stations